Vb Saint Marc — FV6094 — position and weather

sailwx.info

Track history (hours):
 
Tides and Currents Weather Stations Pressure Air Temp Water Temp Dewpoint Dewpoint Depression Visibility Wind Speed Wind Dir Waves Ship Positions

Vb Saint Marc

Last reported at 2018-Jan-19 19:00 UTC. Time now 2018-Jan-19 19:26 UTC.
Position N 47°18' W 002°09'.

Length 30 m; draft 5 m.

Type: Tug. MMSI: 227005270.

Date/timePositionNaut miles runAvg speedWind from/ knotsBaromVisibWave heightAir tempDewpointWater temp
2018-Jan-19 19:00N 47°18' W 002°09'0 0.0
2018-Jan-19 18:30N 47°18' W 002°09'0 0.0
2018-Jan-19 18:01N 47°18' W 002°09'0 0.0
2018-Jan-19 17:31N 47°18' W 002°09'0 0.0
2018-Jan-19 17:00N 47°18' W 002°09'0 0.0
2018-Jan-19 16:30N 47°18' W 002°09'0 0.0
2018-Jan-19 16:00N 47°18' W 002°09'0 0.0
2018-Jan-19 15:30N 47°18' W 002°09'0 0.0
2018-Jan-19 15:00N 47°18' W 002°09'0 0.0
2018-Jan-19 14:30N 47°18' W 002°09'0 0.0
2018-Jan-19 14:00N 47°18' W 002°09'0 0.0
2018-Jan-19 13:30N 47°18' W 002°09'0 0.0
2018-Jan-19 13:00N 47°18' W 002°09'0 0.0
2018-Jan-19 12:30N 47°18' W 002°09'0 0.0
2018-Jan-19 12:01N 47°18' W 002°09'0 0.0
2018-Jan-19 11:31N 47°18' W 002°09'0 0.0
2018-Jan-19 11:01N 47°18' W 002°09'0 0.0
2018-Jan-19 10:30N 47°18' W 002°09'0 0.0
2018-Jan-19 10:00N 47°18' W 002°09'0 0.0
2018-Jan-19 09:30N 47°18' W 002°09'0 0.0
2018-Jan-19 09:01N 47°18' W 002°09'0 0.0
2018-Jan-19 08:30N 47°18' W 002°09'0 0.0
2018-Jan-19 08:00N 47°18' W 002°09'0 0.0
2018-Jan-19 07:30N 47°18' W 002°09'0 0.0
2018-Jan-19 07:00N 47°18' W 002°09'0 0.0
2018-Jan-19 06:30N 47°18' W 002°09'0 0.0
2018-Jan-19 06:00N 47°18' W 002°09'0 0.0
2018-Jan-19 05:30N 47°18' W 002°09'1 2.7
2018-Jan-19 05:00N 47°17' W 002°10'1 1.1
2018-Jan-19 04:30N 47°17' W 002°11'1 1.8
2018-Jan-19 04:01N 47°17' W 002°10'2 3.6
2018-Jan-19 03:29N 47°16' W 002°12'0 0.0
2018-Jan-19 02:57N 47°16' W 002°12'0 0.0
2018-Jan-19 02:10N 47°16' W 002°12'0 0.0
2018-Jan-19 02:00N 47°16' W 002°12'0 0.0
2018-Jan-19 01:14N 47°16' W 002°12'0 0.0
2018-Jan-19 00:19N 47°16' W 002°12'0 0.0
2018-Jan-18 23:51N 47°16' W 002°12'0 0.0
2018-Jan-18 20:06N 47°16' W 002°12'0 0.0
2018-Jan-18 19:56N 47°16' W 002°12'0 0.0
2018-Jan-18 19:25N 47°16' W 002°12'3 1.6
2018-Jan-18 17:30N 47°18' W 002°09'0 0.0
2018-Jan-18 17:00N 47°18' W 002°09'0 0.2
2018-Jan-18 16:30N 47°18' W 002°09'0 0.0
2018-Jan-18 16:00N 47°18' W 002°09'0 0.5
2018-Jan-18 15:30N 47°18' W 002°09'3 5.2
2018-Jan-18 15:00N 47°16' W 002°12'0 0.3
2018-Jan-18 14:23N 47°16' W 002°12'0 0.0
2018-Jan-18 13:48N 47°16' W 002°12'0 0.0
2018-Jan-18 13:18N 47°16' W 002°12'0 0.0
2018-Jan-18 12:42N 47°16' W 002°12'0 2.4
2018-Jan-18 12:30N 47°16' W 002°11'4 7.1
2018-Jan-18 12:00N 47°18' W 002°07'1 1.3
2018-Jan-18 11:30N 47°18' W 002°06'0 0.1
2018-Jan-18 11:00N 47°18' W 002°06'1 1.6
2018-Jan-18 10:29N 47°18' W 002°05'0 0.0
2018-Jan-18 10:00N 47°18' W 002°05'0 0.0
2018-Jan-18 09:31N 47°18' W 002°05'0 0.0
2018-Jan-18 09:00N 47°18' W 002°05'0 0.0
2018-Jan-18 08:30N 47°18' W 002°05'0 0.0
2018-Jan-18 08:01N 47°18' W 002°05'0 0.0
2018-Jan-18 07:30N 47°18' W 002°05'0 0.0
2018-Jan-18 07:00N 47°18' W 002°05'611.1
2018-Jan-18 06:28N 47°17' W 001°56'511.4
2018-Jan-18 06:00N 47°14' W 001°50'510.7
2018-Jan-18 05:30N 47°12' W 001°42'4 8.1
2018-Jan-18 05:00N 47°12' W 001°37'1 1.8
2018-Jan-18 04:30N 47°12' W 001°35'1 1.9
2018-Jan-18 04:00N 47°12' W 001°37'0 0.0
2018-Jan-18 03:30N 47°12' W 001°37'0 0.0
2018-Jan-18 03:00N 47°12' W 001°37'0 0.2
2018-Jan-18 02:30N 47°12' W 001°37'0 0.1
2018-Jan-18 02:00N 47°12' W 001°37'0 0.1
2018-Jan-18 01:30N 47°12' W 001°37'0 0.0
2018-Jan-18 01:01N 47°12' W 001°37'0 0.0
2018-Jan-18 00:00N 47°12' W 001°37'0 0.0
2018-Jan-17 23:57N 47°12' W 001°37'  
2018-Jan-12 14:59N 47°18' W 002°09'2 3.1
2018-Jan-12 14:30N 47°18' W 002°07'0 0.0
2018-Jan-12 14:00N 47°18' W 002°07'0 0.3
2018-Jan-12 13:30N 47°18' W 002°06'1 2.5
2018-Jan-12 13:00N 47°18' W 002°08'3 5.6
2018-Jan-12 12:30N 47°16' W 002°11'0 0.6
2018-Jan-12 11:44N 47°16' W 002°12'0 0.0
2018-Jan-12 11:26N 47°16' W 002°12'0 0.0
2018-Jan-12 10:58N 47°16' W 002°12'0 0.0
2018-Jan-12 10:07N 47°16' W 002°12'0 0.0
2018-Jan-12 09:41N 47°16' W 002°12'0 0.0
2018-Jan-12 09:25N 47°16' W 002°12'0 0.0
2018-Jan-12 07:50N 47°16' W 002°12'0 0.0
2018-Jan-12 06:26N 47°16' W 002°12'0 0.0
2018-Jan-12 05:53N 47°16' W 002°12'0 0.0
2018-Jan-12 05:30N 47°16' W 002°12'0 0.0
2018-Jan-12 04:59N 47°16' W 002°12'0 0.0
2018-Jan-12 04:28N 47°16' W 002°12'0 0.0
2018-Jan-12 04:00N 47°16' W 002°12'0 0.0
2018-Jan-12 03:28N 47°16' W 002°12'0 0.0
2018-Jan-12 03:00N 47°16' W 002°12'0 0.0
2018-Jan-12 02:23N 47°16' W 002°12'0 0.0
2018-Jan-12 02:00N 47°16' W 002°12'0 0.0
2018-Jan-12 01:30N 47°16' W 002°12'0 0.0
2018-Jan-12 00:57N 47°16' W 002°12'0 0.0
2018-Jan-12 00:30N 47°16' W 002°12'0 0.0
2018-Jan-11 23:59N 47°16' W 002°12'0 0.0
2018-Jan-11 23:30N 47°16' W 002°12'0 0.0
2018-Jan-11 22:59N 47°16' W 002°12'0 0.0
2018-Jan-11 22:29N 47°16' W 002°12'0 0.0
2018-Jan-11 21:54N 47°16' W 002°12'0 0.0
2018-Jan-11 21:29N 47°16' W 002°12'0 0.0
2018-Jan-11 21:00N 47°16' W 002°12'0 0.0
2018-Jan-11 20:30N 47°16' W 002°12'2 4.2
2018-Jan-11 20:00N 47°17' W 002°10'1 1.7
2018-Jan-11 19:30N 47°18' W 002°09'0 0.2
2018-Jan-11 19:00N 47°18' W 002°09'2 3.1
2018-Jan-11 18:28N 47°17' W 002°11'1 2.7
2018-Jan-11 17:58N 47°16' W 002°12'0 0.0
2018-Jan-11 17:27N 47°16' W 002°12'0 0.0
2018-Jan-11 16:55N 47°16' W 002°12'410.2
2018-Jan-11 16:29N 47°18' W 002°07'3 5.7
2018-Jan-11 15:59N 47°18' W 002°02'510.6
2018-Jan-11 15:30N 47°17' W 001°55'5 9.6
2018-Jan-11 15:00N 47°14' W 001°50'5 9.5
2018-Jan-11 14:30N 47°12' W 001°43'5 7.1
2018-Jan-11 13:47N 47°12' W 001°36'1 3.5
2018-Jan-11 13:29N 47°12' W 001°37'0 0.1
2018-Jan-11 13:01N 47°12' W 001°37'0 0.9
2018-Jan-11 12:30N 47°12' W 001°37'0 0.0
2018-Jan-11 12:00N 47°12' W 001°37'0 0.1
2018-Jan-11 11:29N 47°12' W 001°37'0 1.0
2018-Jan-11 11:00N 47°12' W 001°36'5 7.8
2018-Jan-11 10:21N 47°12' W 001°43'3 8.5
2018-Jan-11 09:58N 47°13' W 001°48'7 9.0
2018-Jan-11 09:12N 47°17' W 001°56'6 9.5
2018-Jan-11 08:31N 47°18' W 002°05'0 8.5
2018-Jan-11 08:28N 47°18' W 002°06'5 8.7
2018-Jan-11 07:56N 47°16' W 002°12'0 0.0
2018-Jan-11 07:11N 47°16' W 002°12'0 0.0
2018-Jan-11 01:25N 47°16' W 002°12'0 0.0
2018-Jan-11 00:36N 47°16' W 002°12'0 0.0
2018-Jan-11 00:27N 47°16' W 002°12'0 0.0
2018-Jan-10 23:58N 47°16' W 002°12'0 0.0
2018-Jan-10 23:30N 47°16' W 002°12'0 0.0
2018-Jan-10 23:00N 47°16' W 002°12'0 0.0
2018-Jan-10 22:30N 47°16' W 002°12'0 0.0
2018-Jan-10 21:50N 47°16' W 002°12'0 0.0
2018-Jan-10 21:29N 47°16' W 002°12'0 0.0
2018-Jan-10 21:00N 47°16' W 002°12'0 0.0
2018-Jan-10 20:30N 47°16' W 002°12'2 4.8
2018-Jan-10 20:00N 47°18' W 002°09'1 1.5
2018-Jan-10 19:30N 47°17' W 002°10'2 4.4
2018-Jan-10 19:01N 47°18' W 002°07'0 0.1
2018-Jan-10 18:31N 47°18' W 002°07'1 2.3
2018-Jan-10 18:01N 47°18' W 002°09'3 1.3
2018-Jan-10 15:54N 47°16' W 002°12'0 0.0
2018-Jan-10 15:30N 47°16' W 002°12'0 0.0
2018-Jan-10 14:52N 47°16' W 002°12'0 0.0
2018-Jan-10 14:11N 47°16' W 002°12'0 0.0
2018-Jan-10 14:00N 47°16' W 002°12'0 0.0
2018-Jan-10 12:13N 47°16' W 002°12'0 0.6
2018-Jan-10 12:00N 47°16' W 002°12'3 6.9
2018-Jan-10 11:31N 47°18' W 002°08'0 0.0
2018-Jan-10 11:01N 47°18' W 002°08'0 0.0
2018-Jan-10 10:30N 47°18' W 002°08'0 0.2
2018-Jan-10 10:00N 47°18' W 002°08'0 0.2
2018-Jan-10 09:30N 47°18' W 002°08'2 3.6
2018-Jan-10 09:01N 47°17' W 002°10'1 2.8
2018-Jan-10 08:30N 47°18' W 002°09'0 0.3
2018-Jan-10 08:00N 47°18' W 002°08'1 1.9
2018-Jan-10 07:30N 47°17' W 002°10'1 1.6
2018-Jan-10 07:01N 47°18' W 002°09'0 0.0
2018-Jan-10 06:30N 47°18' W 002°09'0 0.0
2018-Jan-10 06:01N 47°18' W 002°09'0 0.0
2018-Jan-10 05:31N 47°18' W 002°09'0 0.0
2018-Jan-10 05:01N 47°18' W 002°09'0 0.0
2018-Jan-10 04:30N 47°18' W 002°09'0 0.0
2018-Jan-10 04:01N 47°18' W 002°09'0 0.0
2018-Jan-10 03:30N 47°18' W 002°09'0 0.0
2018-Jan-10 03:01N 47°18' W 002°09'0 0.0
2018-Jan-10 02:30N 47°18' W 002°09'0 0.0
2018-Jan-10 02:00N 47°18' W 002°09'0 0.0
2018-Jan-10 01:30N 47°18' W 002°09'0 0.0
2018-Jan-10 01:01N 47°18' W 002°09'0 0.0
2018-Jan-10 00:31N 47°18' W 002°09'0 0.0
2018-Jan-10 00:01N 47°18' W 002°09'0 0.0
2018-Jan-09 23:31N 47°18' W 002°09'0 0.0
2018-Jan-09 23:01N 47°18' W 002°09'0 0.0
2018-Jan-09 22:31N 47°18' W 002°09'0 0.0
2018-Jan-09 22:01N 47°18' W 002°09'0 0.0
2018-Jan-09 21:30N 47°18' W 002°09'0 0.0
2018-Jan-09 21:00N 47°18' W 002°09'0 0.0
2018-Jan-09 20:30N 47°18' W 002°09'0 0.0
2018-Jan-09 20:00N 47°18' W 002°09'0 0.0
2018-Jan-09 19:31N 47°18' W 002°09'  
Track history (hours):
 
Tides and Currents Weather Stations Pressure Air Temp Water Temp Dewpoint Dewpoint Depression Visibility Wind Speed Wind Dir Waves Ship Positions

Vb Saint Marc

Last reported at 2018-Jan-19 19:00 UTC. Time now 2018-Jan-19 19:26 UTC.
Position N 47°18' W 002°09'.

Length 30 m; draft 5 m.

Type: Tug. MMSI: 227005270.

Date/timePositionNaut miles runAvg speedWind from/ knotsBaromVisibWave heightAir tempDewpointWater temp
2018-Jan-19 19:00N 47°18' W 002°09'0 0.0
2018-Jan-19 18:30N 47°18' W 002°09'0 0.0
2018-Jan-19 18:01N 47°18' W 002°09'0 0.0
2018-Jan-19 17:31N 47°18' W 002°09'0 0.0
2018-Jan-19 17:00N 47°18' W 002°09'0 0.0
2018-Jan-19 16:30N 47°18' W 002°09'0 0.0
2018-Jan-19 16:00N 47°18' W 002°09'0 0.0
2018-Jan-19 15:30N 47°18' W 002°09'0 0.0
2018-Jan-19 15:00N 47°18' W 002°09'0 0.0
2018-Jan-19 14:30N 47°18' W 002°09'0 0.0
2018-Jan-19 14:00N 47°18' W 002°09'0 0.0
2018-Jan-19 13:30N 47°18' W 002°09'0 0.0
2018-Jan-19 13:00N 47°18' W 002°09'0 0.0
2018-Jan-19 12:30N 47°18' W 002°09'0 0.0
2018-Jan-19 12:01N 47°18' W 002°09'0 0.0
2018-Jan-19 11:31N 47°18' W 002°09'0 0.0
2018-Jan-19 11:01N 47°18' W 002°09'0 0.0
2018-Jan-19 10:30N 47°18' W 002°09'0 0.0
2018-Jan-19 10:00N 47°18' W 002°09'0 0.0
2018-Jan-19 09:30N 47°18' W 002°09'0 0.0
2018-Jan-19 09:01N 47°18' W 002°09'0 0.0
2018-Jan-19 08:30N 47°18' W 002°09'0 0.0
2018-Jan-19 08:00N 47°18' W 002°09'0 0.0
2018-Jan-19 07:30N 47°18' W 002°09'0 0.0
2018-Jan-19 07:00N 47°18' W 002°09'0 0.0
2018-Jan-19 06:30N 47°18' W 002°09'0 0.0
2018-Jan-19 06:00N 47°18' W 002°09'0 0.0
2018-Jan-19 05:30N 47°18' W 002°09'1 2.7
2018-Jan-19 05:00N 47°17' W 002°10'1 1.1
2018-Jan-19 04:30N 47°17' W 002°11'1 1.8
2018-Jan-19 04:01N 47°17' W 002°10'2 3.6
2018-Jan-19 03:29N 47°16' W 002°12'0 0.0
2018-Jan-19 02:57N 47°16' W 002°12'0 0.0
2018-Jan-19 02:10N 47°16' W 002°12'0 0.0
2018-Jan-19 02:00N 47°16' W 002°12'0 0.0
2018-Jan-19 01:14N 47°16' W 002°12'0 0.0
2018-Jan-19 00:19N 47°16' W 002°12'0 0.0
2018-Jan-18 23:51N 47°16' W 002°12'0 0.0
2018-Jan-18 20:06N 47°16' W 002°12'0 0.0
2018-Jan-18 19:56N 47°16' W 002°12'0 0.0
2018-Jan-18 19:25N 47°16' W 002°12'3 1.6
2018-Jan-18 17:30N 47°18' W 002°09'0 0.0
2018-Jan-18 17:00N 47°18' W 002°09'0 0.2
2018-Jan-18 16:30N 47°18' W 002°09'0 0.0
2018-Jan-18 16:00N 47°18' W 002°09'0 0.5
2018-Jan-18 15:30N 47°18' W 002°09'3 5.2
2018-Jan-18 15:00N 47°16' W 002°12'0 0.3
2018-Jan-18 14:23N 47°16' W 002°12'0 0.0
2018-Jan-18 13:48N 47°16' W 002°12'0 0.0
2018-Jan-18 13:18N 47°16' W 002°12'0 0.0
2018-Jan-18 12:42N 47°16' W 002°12'0 2.4
2018-Jan-18 12:30N 47°16' W 002°11'4 7.1
2018-Jan-18 12:00N 47°18' W 002°07'1 1.3
2018-Jan-18 11:30N 47°18' W 002°06'0 0.1
2018-Jan-18 11:00N 47°18' W 002°06'1 1.6
2018-Jan-18 10:29N 47°18' W 002°05'0 0.0
2018-Jan-18 10:00N 47°18' W 002°05'0 0.0
2018-Jan-18 09:31N 47°18' W 002°05'0 0.0
2018-Jan-18 09:00N 47°18' W 002°05'0 0.0
2018-Jan-18 08:30N 47°18' W 002°05'0 0.0
2018-Jan-18 08:01N 47°18' W 002°05'0 0.0
2018-Jan-18 07:30N 47°18' W 002°05'0 0.0
2018-Jan-18 07:00N 47°18' W 002°05'611.1
2018-Jan-18 06:28N 47°17' W 001°56'511.4
2018-Jan-18 06:00N 47°14' W 001°50'510.7
2018-Jan-18 05:30N 47°12' W 001°42'4 8.1
2018-Jan-18 05:00N 47°12' W 001°37'1 1.8
2018-Jan-18 04:30N 47°12' W 001°35'1 1.9
2018-Jan-18 04:00N 47°12' W 001°37'0 0.0
2018-Jan-18 03:30N 47°12' W 001°37'0 0.0
2018-Jan-18 03:00N 47°12' W 001°37'0 0.2
2018-Jan-18 02:30N 47°12' W 001°37'0 0.1
2018-Jan-18 02:00N 47°12' W 001°37'0 0.1
2018-Jan-18 01:30N 47°12' W 001°37'0 0.0
2018-Jan-18 01:01N 47°12' W 001°37'0 0.0
2018-Jan-18 00:00N 47°12' W 001°37'0 0.0
2018-Jan-17 23:57N 47°12' W 001°37'  
2018-Jan-12 14:59N 47°18' W 002°09'2 3.1
2018-Jan-12 14:30N 47°18' W 002°07'0 0.0
2018-Jan-12 14:00N 47°18' W 002°07'0 0.3
2018-Jan-12 13:30N 47°18' W 002°06'1 2.5
2018-Jan-12 13:00N 47°18' W 002°08'3 5.6
2018-Jan-12 12:30N 47°16' W 002°11'0 0.6
2018-Jan-12 11:44N 47°16' W 002°12'0 0.0
2018-Jan-12 11:26N 47°16' W 002°12'0 0.0
2018-Jan-12 10:58N 47°16' W 002°12'0 0.0
2018-Jan-12 10:07N 47°16' W 002°12'0 0.0
2018-Jan-12 09:41N 47°16' W 002°12'0 0.0
2018-Jan-12 09:25N 47°16' W 002°12'0 0.0
2018-Jan-12 07:50N 47°16' W 002°12'0 0.0
2018-Jan-12 06:26N 47°16' W 002°12'0 0.0
2018-Jan-12 05:53N 47°16' W 002°12'0 0.0
2018-Jan-12 05:30N 47°16' W 002°12'0 0.0
2018-Jan-12 04:59N 47°16' W 002°12'0 0.0
2018-Jan-12 04:28N 47°16' W 002°12'0 0.0
2018-Jan-12 04:00N 47°16' W 002°12'0 0.0
2018-Jan-12 03:28N 47°16' W 002°12'0 0.0
2018-Jan-12 03:00N 47°16' W 002°12'0 0.0
2018-Jan-12 02:23N 47°16' W 002°12'0 0.0
2018-Jan-12 02:00N 47°16' W 002°12'0 0.0
2018-Jan-12 01:30N 47°16' W 002°12'0 0.0
2018-Jan-12 00:57N 47°16' W 002°12'0 0.0
2018-Jan-12 00:30N 47°16' W 002°12'0 0.0
2018-Jan-11 23:59N 47°16' W 002°12'0 0.0
2018-Jan-11 23:30N 47°16' W 002°12'0 0.0
2018-Jan-11 22:59N 47°16' W 002°12'0 0.0
2018-Jan-11 22:29N 47°16' W 002°12'0 0.0
2018-Jan-11 21:54N 47°16' W 002°12'0 0.0
2018-Jan-11 21:29N 47°16' W 002°12'0 0.0
2018-Jan-11 21:00N 47°16' W 002°12'0 0.0
2018-Jan-11 20:30N 47°16' W 002°12'2 4.2
2018-Jan-11 20:00N 47°17' W 002°10'1 1.7
2018-Jan-11 19:30N 47°18' W 002°09'0 0.2
2018-Jan-11 19:00N 47°18' W 002°09'2 3.1
2018-Jan-11 18:28N 47°17' W 002°11'1 2.7
2018-Jan-11 17:58N 47°16' W 002°12'0 0.0
2018-Jan-11 17:27N 47°16' W 002°12'0 0.0
2018-Jan-11 16:55N 47°16' W 002°12'410.2
2018-Jan-11 16:29N 47°18' W 002°07'3 5.7
2018-Jan-11 15:59N 47°18' W 002°02'510.6
2018-Jan-11 15:30N 47°17' W 001°55'5 9.6
2018-Jan-11 15:00N 47°14' W 001°50'5 9.5
2018-Jan-11 14:30N 47°12' W 001°43'5 7.1
2018-Jan-11 13:47N 47°12' W 001°36'1 3.5
2018-Jan-11 13:29N 47°12' W 001°37'0 0.1
2018-Jan-11 13:01N 47°12' W 001°37'0 0.9
2018-Jan-11 12:30N 47°12' W 001°37'0 0.0
2018-Jan-11 12:00N 47°12' W 001°37'0 0.1
2018-Jan-11 11:29N 47°12' W 001°37'0 1.0
2018-Jan-11 11:00N 47°12' W 001°36'5 7.8
2018-Jan-11 10:21N 47°12' W 001°43'3 8.5
2018-Jan-11 09:58N 47°13' W 001°48'7 9.0
2018-Jan-11 09:12N 47°17' W 001°56'6 9.5
2018-Jan-11 08:31N 47°18' W 002°05'0 8.5
2018-Jan-11 08:28N 47°18' W 002°06'5 8.7
2018-Jan-11 07:56N 47°16' W 002°12'0 0.0
2018-Jan-11 07:11N 47°16' W 002°12'0 0.0
2018-Jan-11 01:25N 47°16' W 002°12'0 0.0
2018-Jan-11 00:36N 47°16' W 002°12'0 0.0
2018-Jan-11 00:27N 47°16' W 002°12'0 0.0
2018-Jan-10 23:58N 47°16' W 002°12'0 0.0
2018-Jan-10 23:30N 47°16' W 002°12'0 0.0
2018-Jan-10 23:00N 47°16' W 002°12'0 0.0
2018-Jan-10 22:30N 47°16' W 002°12'0 0.0
2018-Jan-10 21:50N 47°16' W 002°12'0 0.0
2018-Jan-10 21:29N 47°16' W 002°12'0 0.0
2018-Jan-10 21:00N 47°16' W 002°12'0 0.0
2018-Jan-10 20:30N 47°16' W 002°12'2 4.8
2018-Jan-10 20:00N 47°18' W 002°09'1 1.5
2018-Jan-10 19:30N 47°17' W 002°10'2 4.4
2018-Jan-10 19:01N 47°18' W 002°07'0 0.1
2018-Jan-10 18:31N 47°18' W 002°07'1 2.3
2018-Jan-10 18:01N 47°18' W 002°09'3 1.3
2018-Jan-10 15:54N 47°16' W 002°12'0 0.0
2018-Jan-10 15:30N 47°16' W 002°12'0 0.0
2018-Jan-10 14:52N 47°16' W 002°12'0 0.0
2018-Jan-10 14:11N 47°16' W 002°12'0 0.0
2018-Jan-10 14:00N 47°16' W 002°12'0 0.0
2018-Jan-10 12:13N 47°16' W 002°12'0 0.6
2018-Jan-10 12:00N 47°16' W 002°12'3 6.9
2018-Jan-10 11:31N 47°18' W 002°08'0 0.0
2018-Jan-10 11:01N 47°18' W 002°08'0 0.0
2018-Jan-10 10:30N 47°18' W 002°08'0 0.2
2018-Jan-10 10:00N 47°18' W 002°08'0 0.2
2018-Jan-10 09:30N 47°18' W 002°08'2 3.6
2018-Jan-10 09:01N 47°17' W 002°10'1 2.8
2018-Jan-10 08:30N 47°18' W 002°09'0 0.3
2018-Jan-10 08:00N 47°18' W 002°08'1 1.9
2018-Jan-10 07:30N 47°17' W 002°10'1 1.6
2018-Jan-10 07:01N 47°18' W 002°09'0 0.0
2018-Jan-10 06:30N 47°18' W 002°09'0 0.0
2018-Jan-10 06:01N 47°18' W 002°09'0 0.0
2018-Jan-10 05:31N 47°18' W 002°09'0 0.0
2018-Jan-10 05:01N 47°18' W 002°09'0 0.0
2018-Jan-10 04:30N 47°18' W 002°09'0 0.0
2018-Jan-10 04:01N 47°18' W 002°09'0 0.0
2018-Jan-10 03:30N 47°18' W 002°09'0 0.0
2018-Jan-10 03:01N 47°18' W 002°09'0 0.0
2018-Jan-10 02:30N 47°18' W 002°09'0 0.0
2018-Jan-10 02:00N 47°18' W 002°09'0 0.0
2018-Jan-10 01:30N 47°18' W 002°09'0 0.0
2018-Jan-10 01:01N 47°18' W 002°09'0 0.0
2018-Jan-10 00:31N 47°18' W 002°09'0 0.0
2018-Jan-10 00:01N 47°18' W 002°09'0 0.0
2018-Jan-09 23:31N 47°18' W 002°09'0 0.0
2018-Jan-09 23:01N 47°18' W 002°09'0 0.0
2018-Jan-09 22:31N 47°18' W 002°09'0 0.0
2018-Jan-09 22:01N 47°18' W 002°09'0 0.0
2018-Jan-09 21:30N 47°18' W 002°09'0 0.0
2018-Jan-09 21:00N 47°18' W 002°09'0 0.0
2018-Jan-09 20:30N 47°18' W 002°09'0 0.0
2018-Jan-09 20:00N 47°18' W 002°09'0 0.0
2018-Jan-09 19:31N 47°18' W 002°09'  

Dump ship's entire track history